Flight Track Log - Related Links

Times and Time Zones

All times are in EDT time to prevent confusion due to time zone crossing. See the EJM19 flight status page for this flight to view local times or setup timezone preferences in your user account.

Time Position Orientation Groundspeed Altitude Reporting Facility
EDT Latitude Longitude Course Direction KTS MPH feet Rate Location/Type
Wed 04:02:41 PM 22.7594 -78.6497 North 426 490 43,000  Level Miami Center
Wed 04:03:41 PM 22.8758 -78.6964 340° North 433 498 43,000  Level Miami Center
Wed 04:04:41 PM 22.9906 -78.7275 346° North 427 491 43,000  Level Miami Center
Wed 04:05:00 PM 30.4413 -74.8620 North  Level Estimated
Wed 04:05:41 PM 23.1089 -78.7767 339° North 440 506 43,000  Level Miami Center
Wed 04:06:00 PM 30.5567 -74.8541 North  Level Estimated
Wed 04:06:41 PM 23.2214 -78.8078 346° North 426 490 43,000  Level Miami Center
Wed 04:07:00 PM 30.6721 -74.8463 North  Level Estimated
Wed 04:07:41 PM 23.3336 -78.8478 342° North 428 493 43,000  Level Miami Center
Wed 04:08:00 PM 30.7875 -74.8384 North  Level Estimated
Wed 04:08:41 PM 23.4461 -78.8814 345° North 416 479 43,000  Level Miami Center
Wed 04:09:41 PM 23.5603 -78.9239 341° North 421 484 43,000  Level Miami Center
Wed 04:10:41 PM 23.6747 -78.9619 343° North 427 491 43,000  Level Miami Center
Wed 04:11:41 PM 23.7850 -78.9978 343° North 416 479 43,000  Level Miami Center
Wed 04:12:41 PM 23.9014 -79.0386 342° North 421 484 43,000  Level Miami Center
Wed 04:13:41 PM 24.0158 -79.0722 345° North 427 491 43,000  Level Miami Center
Wed 04:14:41 PM 24.1408 -79.0906 352° North 420 483 43,000  Level Miami Center
Wed 04:15:41 PM 24.2622 -79.0903 360° North 415 478 43,000  Level Miami Center
Wed 04:16:41 PM 24.3833 -79.0903 360° North 420 483 43,000  Level Miami Center
Wed 04:17:41 PM 24.4942 -79.0808 North 418 481 43,000  Level Miami Center
Wed 04:18:41 PM 24.6156 -79.0761 North 419 482 43,000  Level Miami Center
Wed 04:19:41 PM 24.7347 -79.0692 North 420 483 43,000  Level Miami Center
Wed 04:20:41 PM 24.8517 -79.0642 North 425 489 43,000  Level Miami Center
Wed 04:21:41 PM 24.9708 -79.0594 North 419 482 43,000  Level Miami Center
Wed 04:22:41 PM 25.0922 -79.0525 North 425 489 43,000  Level Miami Center
Wed 04:23:41 PM 25.2094 -79.0478 North 425 489 43,000  Level Miami Center
Wed 04:24:41 PM 25.3264 -79.0406 North 420 483 43,000 150 Level Miami Center
Wed 04:25:41 PM 25.4436 -79.0358 North 420 483 43,300 400 Climbing Miami Center
Wed 04:26:41 PM 25.5564 -79.0308 North 415 478 43,800 500 Climbing Miami Center
Wed 04:27:41 PM 25.6714 -79.0239 North 410 472 44,300 500 Climbing Miami Center
Wed 04:28:41 PM 25.7822 -79.0189 North 402 463 44,800 350 Climbing Miami Center
Wed 04:29:41 PM 25.8953 -79.0161 North 402 463 45,000 100 Climbing Miami Center
Wed 04:30:41 PM 26.0081 -79.0089 North 402 463 45,000  Level Miami Center
Wed 04:31:41 PM 26.1253 -79.0042 North 407 468 45,000  Level Miami Center
Wed 04:32:41 PM 26.2381 -78.9992 North 407 468 45,000  Level Miami Center
Wed 04:33:41 PM 26.3550 -78.9944 North 407 468 45,000  Level Miami Center
Wed 04:34:41 PM 26.4722 -78.9894 North 412 474 45,000  Level Miami Center
Wed 04:35:41 PM 26.5850 -78.9822 North 412 474 45,000  Level Miami Center
Wed 04:36:41 PM 26.7000 -78.9797 North 407 468 45,000  Level Miami Center
Wed 04:37:41 PM 26.8150 -78.9725 North 407 468 45,000  Level Miami Center
Wed 04:38:41 PM 26.9319 -78.9700 North 407 468 45,000  Level Miami Center
Wed 04:39:41 PM 27.0511 -78.9650 North 407 468 45,000  Level Miami Center
Wed 04:40:41 PM 27.1536 -78.9578 North 412 474 45,000  Level Miami Center
Wed 04:41:41 PM 27.2831 -78.9531 North 417 480 45,000  Level Miami Center
Wed 04:42:41 PM 27.4003 -78.9458 North 424 488 45,000  Level Miami Center
Wed 04:44:41 PM 27.6197 -78.9192 North 423 487 45,000  Level Miami Center
Wed 04:45:41 PM 27.7558 -78.9006 North 429 494 45,000  Level Miami Center
Wed 04:46:41 PM 27.8731 -78.8839 North 430 495 45,000  Level Miami Center
Wed 04:47:41 PM 27.9775 -78.8669 North 422 486 45,000  Level Miami Center
Wed 04:48:41 PM 28.0969 -78.8525 North 422 486 45,000  Level Miami Center
Wed 04:49:41 PM 28.2139 -78.8358 North 427 491 45,000  Level Miami Center
Wed 04:50:41 PM 28.3353 -78.8167 North 427 491 45,000  Level Miami Center
Wed 04:51:41 PM 28.4544 -78.7997 North 427 491 45,000  Level Miami Center
Wed 04:52:41 PM 28.5717 -78.7853 North 427 491 45,000  Level Miami Center
Wed 04:53:41 PM 28.6950 -78.7661 North 427 491 45,000 -50 Level Miami Center
Wed 04:54:41 PM 28.8119 -78.7492 North 427 491 44,900  Descending Miami Center
Wed 04:55:41 PM 28.9311 -78.7322 North 427 491 45,000 50 Climbing Miami Center
Wed 04:56:41 PM 29.0544 -78.7178 North 432 497 45,000  Level Miami Center
Wed 04:57:41 PM 29.1736 -78.6983 North 432 497 45,000  Level Miami Center
Wed 04:58:41 PM 29.2928 -78.6814 North 427 491 45,000  Level Miami Center
Wed 04:59:41 PM 29.4139 -78.6667 North 433 498 45,000  Level Miami Center
Wed 05:00:41 PM 29.5331 -78.6472 North 433 498 45,000  Level Miami Center
Wed 05:02:35 PM 29.7733 -78.6169 North 424 488 45,000  Level Jacksonville Center
Wed 05:03:35 PM 29.8872 -78.5928 10° North 433 498 45,000  Level Jacksonville Center
Wed 05:04:35 PM 30.0075 -78.5731 North 429 494 45,000  Level Jacksonville Center
Wed 05:05:36 PM 30.1303 -78.5628 North 432 497 45,000  Level Jacksonville Center
Wed 05:06:35 PM 30.2319 -78.5461 North 416 479 45,000  Level Jacksonville Center
Wed 05:07:35 PM 30.3506 -78.5311 North 423 487 45,000  Level Jacksonville Center
Wed 05:08:35 PM 30.4708 -78.5111 North 423 487 45,000  Level Jacksonville Center
Wed 05:09:35 PM 30.5892 -78.4914 North 428 493 45,000  Level Jacksonville Center
Wed 05:10:36 PM 30.7097 -78.4736 North 423 487 45,000  Level Jacksonville Center
Wed 05:11:35 PM 30.8364 -78.4533 North 434 499 45,000  Level Jacksonville Center
Wed 05:12:36 PM 30.9503 -78.4333 North 439 505 45,000  Level Jacksonville Center
Wed 05:13:36 PM 31.0853 -78.4125 North 439 505 45,000  Level Jacksonville Center
Wed 05:14:35 PM 31.2039 -78.3969 North 436 502 45,000  Level Jacksonville Center
Wed 05:15:35 PM 31.3242 -78.3742 North 436 502 45,000  Level Jacksonville Center
Wed 05:16:35 PM 31.4403 -78.3539 North 421 484 45,000  Level Jacksonville Center
Wed 05:17:36 PM 31.5564 -78.3361 North 416 479 45,000  Level Jacksonville Center
Wed 05:18:35 PM 31.6769 -78.3156 North 421 484 45,000  Level Jacksonville Center
Wed 05:19:36 PM 31.7972 -78.2950 North 429 494 45,000  Level Jacksonville Center
Wed 05:20:35 PM 31.9111 -78.2747 North 429 494 45,000  Level Jacksonville Center
Wed 05:21:35 PM 32.0314 -78.2539 North 423 487 45,000  Level Jacksonville Center
Wed 05:22:36 PM 32.1353 -78.2364 North 424 488 45,000  Level Jacksonville Center
Wed 05:23:35 PM 32.2492 -78.2158 North 424 488 45,000  Level Jacksonville Center
Wed 05:24:36 PM 32.3633 -78.1978 North 424 488 45,000  Level Jacksonville Center
Wed 05:25:36 PM 32.4772 -78.1722 11° North 419 482 45,000  Level Jacksonville Center
Wed 05:26:35 PM 32.5939 -78.1636 North 419 482 45,000  Level Jacksonville Center
Wed 05:27:35 PM 32.7078 -78.1403 10° North 419 482 45,000  Level Jacksonville Center
Wed 05:28:35 PM 32.8219 -78.1269 North 419 482 45,000  Level Jacksonville Center
Wed 05:29:36 PM 32.9383 -78.1108 North 419 482 45,000  Level Jacksonville Center
Wed 05:30:36 PM 33.0528 -78.1047 North 414 476 45,000  Level Jacksonville Center
Wed 05:31:35 PM 33.1672 -78.0986 North 414 476 45,000  Level Jacksonville Center
Wed 05:32:35 PM 33.2819 -78.0925 North 414 476 45,000  Level Jacksonville Center
Wed 05:33:36 PM 33.3964 -78.0886 North 409 471 45,000  Level Jacksonville Center
Wed 05:34:36 PM 33.5094 -78.0950 357° North 409 471 45,000  Level Jacksonville Center
Wed 05:35:35 PM 33.6244 -78.1014 357° North 409 471 45,000  Level Jacksonville Center
Wed 05:36:36 PM 33.7414 -78.1050 359° North 409 471 45,000  Level Jacksonville Center
Wed 05:37:54 PM 33.8844 -78.1208 355° North 402 463 45,000  Level Washington Center
Wed 05:38:54 PM 34.0014 -78.1119 North 407 468 45,000  Level Washington Center
Wed 05:39:55 PM 34.1225 -78.1081 North 418 481 45,000  Level Washington Center
Wed 05:40:53 PM 34.2333 -78.0939 North 418 481 45,000  Level Washington Center
Wed 05:41:54 PM 34.3483 -78.0847 North 418 481 45,000  Level Washington Center
Wed 05:42:54 PM 34.4611 -78.0731 North 413 475 45,000  Level Washington Center
Wed 05:43:53 PM 34.5739 -78.0664 North 408 470 45,000  Level Washington Center
Wed 05:44:54 PM 34.6889 -78.0597 North 408 470 45,000 -49 Level Washington Center
Wed 05:45:55 PM 34.7997 -78.0456 North 403 464 44,900  Descending Washington Center
Wed 05:46:55 PM 34.9211 -78.0339 North 403 464 45,000 51 Climbing Washington Center
Wed 05:47:53 PM 35.0358 -78.0247 North 403 464 45,000  Level Washington Center
Wed 05:48:54 PM 35.1258 -78.0172 North 403 464 45,000  Level Washington Center
Wed 05:49:55 PM 35.2639 -78.0036 North 403 464 45,000  Level Washington Center
Wed 05:50:53 PM 35.3786 -77.9969 North 408 470 45,000  Level Washington Center
Wed 05:51:54 PM 35.4917 -77.9875 North 408 470 45,000  Level Washington Center
Wed 05:52:54 PM 35.5964 -77.9650 10° North 408 470 45,000  Level Washington Center
Wed 05:53:55 PM 35.7056 -77.9247 17° North 408 470 45,000  Level Washington Center
Wed 05:54:53 PM 35.8169 -77.8844 16° North 413 475 45,000  Level Washington Center
Wed 05:55:54 PM 35.9283 -77.8417 17° North 418 481 45,000  Level Washington Center
Wed 05:56:55 PM 36.0378 -77.8011 17° North 418 481 45,000  Level Washington Center
Wed 05:57:55 PM 36.1469 -77.7603 17° North 412 474 45,000  Level Washington Center
Wed 05:58:53 PM 36.2583 -77.7197 16° North 407 468 45,000  Level Washington Center
Wed 05:59:54 PM 36.3653 -77.6761 18° North 402 463 45,000  Level Washington Center
Wed 06:00:54 PM 36.4725 -77.6350 17° North 402 463 45,000  Level Washington Center
Wed 06:01:55 PM 36.5881 -77.5889 18° North 408 470 45,000  Level Washington Center
Wed 06:02:55 PM 36.6992 -77.5453 17° North 408 470 45,000  Level Washington Center
Wed 06:03:53 PM 36.8025 -77.4831 26° Northeast 413 475 45,000  Level Washington Center
Wed 06:04:53 PM 36.8589 -77.3494 62° Northeast 395 455 45,000  Level Washington Center
Wed 06:05:54 PM 36.9028 -77.1892 71° East 405 466 45,000  Level Washington Center
Wed 06:06:54 PM 36.9483 -77.0500 68° East 412 474 45,000  Level Washington Center
Wed 06:07:55 PM 36.9939 -76.9078 68° East 430 495 45,000  Level Washington Center
Wed 06:08:53 PM 37.0764 -76.7997 46° Northeast 430 495 45,000  Level Washington Center
Wed 06:09:54 PM 37.1853 -76.7389 24° Northeast 409 471 45,000  Level Washington Center
Wed 06:10:54 PM 37.2883 -76.6647 30° Northeast 415 478 45,000  Level Washington Center
Wed 06:11:55 PM 37.3953 -76.5956 27° Northeast 420 483 45,000  Level Washington Center
Wed 06:12:53 PM 37.4936 -76.5497 20° North 420 483 45,000  Level Washington Center
Wed 06:13:54 PM 37.6086 -76.5197 12° North 420 483 45,000  Level Washington Center
Wed 06:14:55 PM 37.7233 -76.5003 North 415 478 45,000 -504 Level Washington Center
Wed 06:15:53 PM 37.8383 -76.4728 11° North 415 478 44,000 -1,311 Descending Washington Center
Wed 06:16:54 PM 37.9514 -76.4239 19° North 415 478 42,400 -1,686 Descending Washington Center
Wed 06:17:54 PM 38.0642 -76.3750 19° North 420 483 40,600 -1,785 Descending Washington Center
Wed 06:18:55 PM 38.1792 -76.3261 18° North 425 489 38,800 -1,765 Descending Washington Center
Wed 06:19:53 PM 38.2922 -76.2769 19° North 430 495 37,100 -1,462 Descending Washington Center
Wed 06:20:54 PM 38.4197 -76.2225 18° North 425 489 35,900 -1,328 Descending Washington Center
Wed 06:21:55 PM 38.5347 -76.1703 20° North 430 495 34,400 -1,686 Descending Washington Center
Wed 06:22:55 PM 38.6600 -76.1153 19° North 445 512 32,500 -1,900 Descending Washington Center
Wed 06:23:55 PM 38.7561 -76.0069 41° Northeast 444 511 30,600 -1,932 Descending Washington Center
Wed 06:24:53 PM 38.8317 -75.8608 56° Northeast 449 517 28,700 -2,050 Descending Washington Center
Wed 06:25:55 PM 38.9175 -75.7358 49° Northeast 462 532 26,500 -2,262 Descending Washington Center
Wed 06:26:55 PM 39.0342 -75.6772 21° North 437 503 24,100 -1,271 Descending Washington Center
Wed 06:27:53 PM 39.1550 -75.6450 12° North 428 493 24,000 -50 Descending Washington Center
Wed 06:28:54 PM 39.2633 -75.6103 14° North 434 499 24,000  Level Washington Center
Wed 06:29:54 PM 39.3739 -75.6264 354° North 421 484 24,000 -1,000 Level Washington Center
Wed 06:30:54 PM 39.4886 -75.6344 357° North 414 476 22,000 -3,316 Descending Washington Center
Wed 06:33:04 PM 39.7500 -75.6000 North 385 443 13,500 -2,935 Descending Philadelphia TRACON
Wed 06:33:58 PM 39.8333 -75.5667 17° North 386 444 13,000 -294 Descending Philadelphia TRACON
Wed 06:34:46 PM 39.9000 -75.5000 37° Northeast 394 453 13,000  Level Philadelphia TRACON
Wed 06:35:46 PM 40.0000 -75.4167 33° Northeast 373 429 13,000  Level Philadelphia TRACON
Wed 06:36:46 PM 40.0833 -75.3500 31° Northeast 374 430 13,000  Level Philadelphia TRACON
Wed 06:37:52 PM 40.1833 -75.2667 32° Northeast 383 441 13,000 -756 Level Philadelphia TRACON
Wed 06:38:53 PM 40.2667 -75.1833 37° Northeast 313 360 11,400 -1,920 Descending Philadelphia TRACON
Wed 06:40:47 PM 40.4000 -75.0833 30° Northeast 305 351 7,400 -1,800 Descending New York TRACON
Wed 06:41:53 PM 40.4667 -75.0167 37° Northeast 293 337 6,000 -1,600 Descending New York TRACON
Wed 06:42:47 PM 40.5333 -74.9667 30° Northeast 288 331 4,200 -1,000 Descending New York TRACON
Wed 06:43:53 PM 40.6000 -74.9167 30° Northeast 279 321 4,000 -100 Descending New York TRACON
Wed 06:44:47 PM 40.6667 -74.8667 30° Northeast 284 327 4,000 -100 Level New York TRACON
Wed 06:45:53 PM 40.7167 -74.7833 52° Northeast 288 331 3,800 -500 Descending New York TRACON
Wed 06:46:47 PM 40.7833 -74.7167 37° Northeast 286 329 3,000 -400 Descending New York TRACON
Wed 06:47:53 PM 40.8333 -74.6333 52° Northeast 276 318 3,000  Level New York TRACON
Wed 06:48:53 PM 40.8833 -74.5667 45° Northeast 274 315 3,000  Level New York TRACON
Wed 06:49:53 PM 40.9333 -74.4833 52° Northeast 286 329 3,000  Level New York TRACON
Wed 06:50:53 PM 40.9667 -74.3833 66° East 286 329 3,000 -500 Level New York TRACON
Wed 06:51:53 PM 41.0000 -74.2833 66° East 292 336 2,000 -526 Descending New York TRACON
Wed 06:52:47 PM 41.0167 -74.2000 75° East 276 318 2,000  Level New York TRACON
Wed 06:53:53 PM 41.0333 -74.1000 78° East 288 331 2,000 -161 Level New York TRACON
Wed 06:55:53 PM 40.9333 -74.0500 159° South 183 211 1,500 -433 Descending New York TRACON
Wed 06:56:53 PM 40.8833 -74.0500 180° South 142 163 700 -800 Descending New York TRACON

Login

Don't have an account? Register now (free) for customized features, flight alerts, and more!